Time;durP1;ratioP1;P1;durP2;ratioP2;P2;SDS_P1;SDS_P2;PMS_P1;PMS_P2;Temp;Humidity;BMP_temperature;BMP_pressure;BME280_temperature;BME280_humidity;BME280_pressure;Samples;Min_cycle;Max_cycle;Signal;HPM_P1;HPM_P2
2021/03/22 00:02:07;;;;;;;32.35;7.40;;;;;;;5.30;87.12;102618.38;5111819;28;20028;-76
2021/03/22 00:04:32;;;;;;;39.85;8.95;;;;;;;5.22;87.31;102608.41;5085764;28;20038;-77
2021/03/22 00:06:58;;;;;;;34.42;7.75;;;;;;;5.27;87.27;102607.97;5104273;28;20339;-76
2021/03/22 00:09:23;;;;;;;33.85;8.30;;;;;;;5.23;87.84;102610.16;5110845;28;20024;-76
2021/03/22 00:11:49;;;;;;;27.80;7.63;;;;;;;5.26;87.15;102601.09;5101855;28;20020;-76
2021/03/22 00:14:14;;;;;;;32.75;8.05;;;;;;;5.31;86.78;102601.41;5094704;28;20831;-76
2021/03/22 00:16:40;;;;;;;22.55;7.45;;;;;;;5.36;86.63;102602.63;5094964;28;20110;-77
2021/03/22 00:19:06;;;;;;;30.38;7.72;;;;;;;5.35;86.34;102602.53;5078537;28;20035;-76
2021/03/22 00:21:31;;;;;;;27.08;7.50;;;;;;;5.35;86.45;102599.97;5083645;28;20019;-76
2021/03/22 00:23:56;;;;;;;30.60;7.63;;;;;;;5.26;86.71;102608.72;5116163;28;20528;-76
2021/03/22 00:26:22;;;;;;;32.03;7.80;;;;;;;5.25;86.85;102604.41;5115909;28;20100;-76
2021/03/22 00:28:47;;;;;;;27.37;7.93;;;;;;;5.22;86.32;102595.66;5112749;28;20039;-77
2021/03/22 00:31:14;;;;;;;36.93;7.67;;;;;;;5.18;86.86;102593.63;5097945;28;20299;-76
2021/03/22 00:33:40;;;;;;;28.40;7.17;;;;;;;5.14;86.73;102599.28;5105346;28;20024;-76
2021/03/22 00:36:06;;;;;;;36.80;8.32;;;;;;;5.14;87.03;102599.28;5096224;28;20569;-76
2021/03/22 00:38:31;;;;;;;37.80;8.15;;;;;;;5.17;86.72;102596.97;5099437;28;20448;-76
2021/03/22 00:40:57;;;;;;;24.45;6.65;;;;;;;5.27;85.47;102589.25;5101872;28;20086;-77
2021/03/22 00:43:24;;;;;;;24.17;6.60;;;;;;;5.45;83.56;102593.09;5095631;28;20024;-76
2021/03/22 00:45:50;;;;;;;24.50;6.33;;;;;;;5.37;84.28;102588.22;5107441;28;20024;-76
2021/03/22 00:48:15;;;;;;;33.63;6.77;;;;;;;5.46;82.35;102584.69;5114911;28;20023;-76
2021/03/22 00:50:43;;;;;;;27.30;7.50;;;;;;;5.41;81.96;102588.56;5096931;28;20028;-76
2021/03/22 00:53:10;;;;;;;24.67;6.20;;;;;;;5.43;81.00;102584.47;5096965;28;20257;-76
2021/03/22 00:55:36;;;;;;;25.47;5.53;;;;;;;5.46;80.25;102578.69;5115227;28;20119;-76
2021/03/22 00:58:02;;;;;;;21.27;5.10;;;;;;;5.45;80.64;102575.25;5097851;28;20016;-76
2021/03/22 01:00:40;;;;;;;23.23;5.80;;;;;;;5.40;80.34;102584.25;5082792;28;20077;-75
2021/03/22 01:03:08;;;;;;;20.73;4.80;;;;;;;5.48;79.44;102577.13;5097732;28;20473;-76
2021/03/22 01:05:34;;;;;;;22.03;5.53;;;;;;;5.50;79.02;102583.22;5102830;28;20031;-76
2021/03/22 01:07:59;;;;;;;19.63;5.63;;;;;;;5.47;79.46;102581.34;5096394;28;20024;-76
2021/03/22 01:10:54;;;;;;;17.95;5.18;;;;;;;5.49;79.16;102577.25;5082454;28;20027;-76
2021/03/22 01:13:42;;;;;;;27.60;7.60;;;;;;;5.43;79.97;102581.03;5091398;28;20385;-77
2021/03/22 01:16:08;;;;;;;27.67;6.10;;;;;;;5.36;80.38;102582.25;5091571;28;20152;-77
2021/03/22 01:18:36;;;;;;;20.80;5.00;;;;;;;5.41;80.33;102580.03;5102887;28;20055;-76
2021/03/22 01:21:15;;;;;;;27.17;5.50;;;;;;;5.38;80.32;102574.72;5091797;28;20024;-76
2021/03/22 01:23:40;;;;;;;17.60;4.70;;;;;;;5.46;80.15;102571.03;5102882;28;20038;-76
2021/03/22 01:26:07;;;;;;;18.43;5.23;;;;;;;5.42;80.68;102576.69;5087997;28;20067;-76
2021/03/22 01:28:33;;;;;;;17.73;4.57;;;;;;;5.36;81.26;102569.50;5092987;28;20485;-76
2021/03/22 01:31:00;;;;;;;19.30;5.43;;;;;;;5.50;80.49;102562.84;5094419;28;20035;-76
2021/03/22 01:33:29;;;;;;;20.87;5.57;;;;;;;5.42;81.00;102566.50;5076317;28;20016;-76
2021/03/22 01:36:00;;;;;;;15.77;5.07;;;;;;;5.40;81.23;102562.97;5094613;28;20107;-76
2021/03/22 01:38:27;;;;;;;22.50;5.63;;;;;;;5.37;81.76;102561.09;5075859;28;20024;-76
2021/03/22 01:41:16;;;;;;;20.67;5.70;;;;;;;5.36;81.38;102566.97;5075793;28;20028;-76
2021/03/22 01:44:16;;;;;;;18.40;5.13;;;;;;;5.37;81.26;102562.75;5085201;28;20030;-76
2021/03/22 01:46:45;;;;;;;25.60;6.43;;;;;;;5.31;81.43;102553.91;5084447;28;20469;-76
2021/03/22 01:49:11;;;;;;;16.10;4.90;;;;;;;5.27;81.69;102553.56;5107045;28;20020;-76
2021/03/22 01:51:37;;;;;;;22.25;5.57;;;;;;;5.28;82.52;102555.34;5083495;28;20031;-76
2021/03/22 01:54:05;;;;;;;19.73;5.57;;;;;;;5.28;82.30;102548.59;5108499;28;20016;-75
2021/03/22 01:56:40;;;;;;;24.90;5.60;;;;;;;5.36;82.17;102546.56;5099578;28;20080;-76
2021/03/22 01:59:05;;;;;;;29.07;5.70;;;;;;;5.46;81.72;102543.00;5083405;28;20077;-76
2021/03/22 02:01:31;;;;;;;20.33;6.27;;;;;;;5.43;82.43;102540.25;5105265;28;20032;-76
2021/03/22 02:03:56;;;;;;;20.85;5.82;;;;;;;5.50;82.12;102534.81;5110225;28;20023;-76
2021/03/22 02:06:24;;;;;;;28.33;6.28;;;;;;;5.40;82.78;102538.38;5084480;28;20481;-76
2021/03/22 02:08:50;;;;;;;23.50;6.43;;;;;;;5.44;83.08;102537.81;5092912;28;20049;-76
2021/03/22 02:11:27;;;;;;;33.97;6.97;;;;;;;5.41;83.38;102540.13;5113485;28;20465;-76
2021/03/22 02:13:56;;;;;;;22.53;6.30;;;;;;;5.39;83.64;102545.91;5082779;28;20036;-76
2021/03/22 02:16:27;;;;;;;25.43;7.03;;;;;;;5.43;84.01;102543.69;5108983;28;20015;-76
2021/03/22 02:19:30;;;;;;;23.80;6.33;;;;;;;5.37;84.51;102547.47;5085353;28;20076;-77
2021/03/22 02:22:14;;;;;;;37.83;6.90;;;;;;;5.37;84.58;102552.56;5082029;28;20020;-76
2021/03/22 02:25:00;;;;;;;20.67;6.33;;;;;;;5.43;84.30;102543.69;5088937;28;20020;-76
2021/03/22 02:28:03;;;;;;;32.00;7.30;;;;;;;5.40;84.53;102535.81;5104448;28;20762;-76
2021/03/22 02:31:06;;;;;;;27.37;7.00;;;;;;;5.34;84.87;102540.47;5086324;28;20015;-75
2021/03/22 02:34:01;;;;;;;32.70;6.90;;;;;;;5.35;84.82;102534.63;5081301;22;20040;-80
2021/03/22 02:36:44;;;;;;;27.23;7.23;;;;;;;5.37;84.74;102527.06;5070012;28;20024;-81
2021/03/22 02:39:09;;;;;;;27.73;7.40;;;;;;;5.29;85.32;102534.19;5064748;28;20110;-80
2021/03/22 02:41:41;;;;;;;31.90;6.88;;;;;;;5.31;85.17;102535.16;5053520;28;20112;-80
2021/03/22 02:44:20;;;;;;;30.10;7.13;;;;;;;5.27;85.23;102540.81;5054204;28;20031;-81
2021/03/22 02:46:53;;;;;;;33.07;7.50;;;;;;;5.33;85.48;102536.16;5053254;28;20093;-82
2021/03/22 02:49:18;;;;;;;26.27;7.20;;;;;;;5.34;84.98;102540.47;5054342;28;20120;-80
2021/03/22 02:52:04;;;;;;;32.58;7.65;;;;;;;5.28;85.33;102538.38;5053336;28;20115;-81
2021/03/22 02:54:50;;;;;;;34.13;8.07;;;;;;;5.34;85.33;102537.94;5071923;28;20037;-81
2021/03/22 02:57:26;;;;;;;24.60;6.97;;;;;;;5.35;85.62;102538.81;5053926;28;20033;-80
2021/03/22 02:59:59;;;;;;;37.70;7.10;;;;;;;5.32;86.10;102539.50;5072230;28;20394;-80
2021/03/22 03:02:28;;;;;;;22.53;8.03;;;;;;;5.17;86.60;102540.91;5069725;28;20028;-80
2021/03/22 03:04:53;;;;;;;32.03;8.40;;;;;;;5.22;87.16;102537.06;5053329;28;20056;-81
2021/03/22 03:07:25;;;;;;;30.25;8.25;;;;;;;5.19;87.11;102541.91;5053706;28;20057;-81
2021/03/22 03:09:51;;;;;;;24.67;7.30;;;;;;;5.20;86.40;102529.31;5054268;28;20032;-79
2021/03/22 03:12:22;;;;;;;25.40;5.75;;;;;;;5.17;86.07;102531.59;5071659;28;20030;-80
2021/03/22 03:14:51;;;;;;;33.13;7.00;;;;;;;5.19;86.41;102539.34;5053453;28;20050;-80
2021/03/22 03:17:18;;;;;;;34.53;7.93;;;;;;;5.15;86.26;102539.91;5053182;28;20032;-80
2021/03/22 03:19:43;;;;;;;23.50;6.53;;;;;;;5.14;86.69;102543.25;5071520;28;20020;-81
2021/03/22 03:22:10;;;;;;;26.17;6.60;;;;;;;5.21;86.56;102540.38;5069601;28;20031;-80
2021/03/22 03:24:36;;;;;;;32.03;7.80;;;;;;;5.15;87.09;102545.00;5053484;28;20023;-80
2021/03/22 03:27:02;;;;;;;37.33;8.10;;;;;;;5.13;86.90;102538.91;5053797;28;20028;-80
2021/03/22 03:29:27;;;;;;;24.35;6.63;;;;;;;5.19;87.10;102536.81;5071646;28;20025;-80
2021/03/22 03:31:53;;;;;;;27.45;6.57;;;;;;;5.26;86.86;102541.59;5070830;28;20024;-81
2021/03/22 03:34:18;;;;;;;26.53;6.77;;;;;;;5.21;86.93;102535.28;5071608;28;20367;-80
2021/03/22 03:36:43;;;;;;;30.92;7.15;;;;;;;5.18;87.46;102540.13;5071492;28;20029;-81
2021/03/22 03:39:09;;;;;;;28.43;7.03;;;;;;;5.21;87.08;102535.28;5071072;28;20142;-81
2021/03/22 03:41:36;;;;;;;26.13;6.38;;;;;;;5.14;87.26;102540.69;5071425;28;20314;-80
2021/03/22 03:44:08;;;;;;;27.83;6.67;;;;;;;5.11;87.51;102546.47;5053160;28;20386;-81
2021/03/22 03:46:33;;;;;;;27.73;6.50;;;;;;;5.08;87.70;102547.91;5053416;28;20108;-80
2021/03/22 03:48:58;;;;;;;31.77;7.57;;;;;;;5.11;87.36;102549.00;5071085;28;20059;-80
2021/03/22 03:51:24;;;;;;;30.30;6.30;;;;;;;5.09;87.39;102547.13;5070966;28;20013;-81
2021/03/22 03:53:49;;;;;;;23.13;6.20;;;;;;;5.15;87.64;102550.09;5074960;28;20343;-81
2021/03/22 03:56:14;;;;;;;23.17;5.65;;;;;;;5.12;87.44;102554.97;5056916;28;20266;-80
2021/03/22 03:58:40;;;;;;;23.13;5.33;;;;;;;5.14;87.25;102549.22;5057003;28;20115;-82
2021/03/22 04:01:05;;;;;;;27.73;4.70;;;;;;;5.16;87.08;102549.34;5056874;28;20322;-80
2021/03/22 04:03:32;;;;;;;28.30;5.80;;;;;;;5.17;86.80;102544.34;5055052;28;20299;-80
2021/03/22 04:06:21;;;;;;;23.43;5.53;;;;;;;5.14;86.94;102549.22;5074784;28;20063;-80
2021/03/22 04:08:53;;;;;;;29.03;5.50;;;;;;;5.17;86.69;102544.34;5074810;28;20058;-80
2021/03/22 04:11:24;;;;;;;21.97;4.50;;;;;;;5.19;86.20;102550.44;5056309;28;20112;-79
2021/03/22 04:13:49;;;;;;;20.33;5.90;;;;;;;5.23;85.57;102547.38;5074261;28;20039;-80
2021/03/22 04:16:15;;;;;;;20.35;5.32;;;;;;;5.15;85.71;102550.09;5056885;28;20028;-81
2021/03/22 04:18:41;;;;;;;26.63;5.72;;;;;;;5.22;85.74;102549.81;5073994;28;20028;-80
2021/03/22 04:21:09;;;;;;;23.05;4.78;;;;;;;5.12;86.26;102554.97;5055797;28;20020;-81
2021/03/22 04:23:35;;;;;;;22.90;4.70;;;;;;;5.14;86.08;102555.97;5055887;28;20401;-80
2021/03/22 04:26:02;;;;;;;25.27;5.20;;;;;;;5.10;85.99;102557.41;5055947;28;20039;-81
2021/03/22 04:28:28;;;;;;;20.37;5.00;;;;;;;5.12;86.26;102560.06;5073769;28;20028;-80
2021/03/22 04:30:53;;;;;;;26.08;7.05;;;;;;;5.13;85.86;102554.22;5055653;28;20017;-81
2021/03/22 04:33:18;;;;;;;24.60;4.78;;;;;;;5.18;85.75;102557.97;5055724;28;20122;-81
2021/03/22 04:35:44;;;;;;;25.20;5.40;;;;;;;5.09;86.00;102560.75;5055916;28;20025;-80
2021/03/22 04:38:09;;;;;;;28.00;4.70;;;;;;;5.06;86.35;102557.09;5073942;28;20738;-80
2021/03/22 04:40:35;;;;;;;21.63;5.00;;;;;;;5.14;86.33;102558.53;5073158;28;20270;-80
2021/03/22 04:43:00;;;;;;;27.38;6.07;;;;;;;5.09;86.32;102560.75;5055519;28;20841;-81
2021/03/22 04:45:29;;;;;;;22.65;5.78;;;;;;;5.17;86.31;102558.75;5073878;28;20481;-80
2021/03/22 04:47:54;;;;;;;19.60;4.97;;;;;;;5.20;85.85;102569.16;5055185;28;20035;-80
2021/03/22 04:50:22;;;;;;;37.47;5.40;;;;;;;5.18;85.65;102573.25;5054927;28;20024;-80
2021/03/22 04:52:47;;;;;;;15.93;3.70;;;;;;;5.12;85.87;102570.25;5073358;28;20021;-80
2021/03/22 04:55:13;;;;;;;23.35;5.22;;;;;;;5.16;85.85;102568.03;5072189;28;20366;-80
2021/03/22 04:57:39;;;;;;;24.08;5.03;;;;;;;5.03;86.06;102570.50;5073929;28;20024;-81
2021/03/22 05:00:10;;;;;;;23.02;5.07;;;;;;;5.02;86.29;102567.84;5055617;28;20470;-80
2021/03/22 05:02:36;;;;;;;18.53;5.30;;;;;;;4.96;86.98;102558.09;5055236;28;20040;-80
2021/03/22 05:05:01;;;;;;;25.30;5.27;;;;;;;5.02;87.00;102567.84;5073680;28;20363;-80
2021/03/22 05:07:27;;;;;;;20.80;4.63;;;;;;;5.14;86.53;102568.72;5073008;28;20031;-80
2021/03/22 05:09:52;;;;;;;30.42;6.13;;;;;;;5.22;85.52;102573.63;5054766;28;20028;-80
2021/03/22 05:12:18;;;;;;;20.92;4.32;;;;;;;5.35;84.76;102570.28;5054584;28;20030;-80
2021/03/22 05:14:43;;;;;;;20.55;3.97;;;;;;;5.25;85.10;102575.50;5072805;28;20048;-80
2021/03/22 05:17:08;;;;;;;27.77;4.80;;;;;;;5.18;85.83;102576.69;5073195;28;20036;-80
2021/03/22 05:19:34;;;;;;;25.05;5.05;;;;;;;5.15;85.84;102578.13;5055310;28;20297;-79
2021/03/22 05:21:59;;;;;;;24.27;5.28;;;;;;;5.09;86.26;102581.13;5054445;28;20035;-81
2021/03/22 05:24:26;;;;;;;20.15;4.45;;;;;;;5.12;85.78;102586.44;5071518;28;20028;-80
2021/03/22 05:26:52;;;;;;;19.83;4.00;;;;;;;5.07;86.19;102582.66;5054866;28;20032;-82
2021/03/22 05:29:22;;;;;;;17.58;4.88;;;;;;;5.21;84.75;102576.06;5054880;28;20651;-80
2021/03/22 05:31:48;;;;;;;25.60;5.57;;;;;;;5.13;85.18;102587.31;5053983;28;20032;-79
2021/03/22 05:34:14;;;;;;;14.43;3.37;;;;;;;5.09;85.25;102580.22;5055164;28;20401;-81
2021/03/22 05:36:39;;;;;;;17.55;4.00;;;;;;;5.17;84.98;102580.00;5072912;28;20277;-80
2021/03/22 05:39:05;;;;;;;17.02;4.25;;;;;;;5.19;84.92;102587.75;5072739;28;20440;-80
2021/03/22 05:41:36;;;;;;;24.92;4.60;;;;;;;5.22;84.74;102582.94;5072186;28;20025;-80
2021/03/22 05:44:18;;;;;;;13.13;3.80;;;;;;;5.21;84.42;102576.94;5054371;28;20073;-80
2021/03/22 05:47:02;;;;;;;26.43;4.97;;;;;;;5.28;84.12;102578.28;5054894;28;20030;-80
2021/03/22 05:49:44;;;;;;;16.70;4.00;;;;;;;5.20;84.18;102585.38;5054676;28;20413;-81
2021/03/22 05:52:18;;;;;;;19.20;3.70;;;;;;;5.12;84.48;102583.88;5050876;28;20027;-81
2021/03/22 05:55:16;;;;;;;16.07;4.23;;;;;;;5.06;84.83;102580.00;5054596;28;20017;-80
2021/03/22 05:57:41;;;;;;;;;;;;;;;5.00;85.67;102581.34;5072851;28;20024;-80
2021/03/22 06:00:19;;;;;;;15.20;3.33;;;;;;;4.99;85.60;102587.22;5054499;28;20014;-79
2021/03/22 06:02:57;;;;;;;24.33;4.10;;;;;;;5.21;85.01;102582.03;5054525;28;20528;-80
2021/03/22 06:05:36;;;;;;;16.50;3.80;;;;;;;5.33;84.04;102597.31;5054569;28;20032;-81
2021/03/22 06:08:17;;;;;;;18.60;3.80;;;;;;;5.25;85.34;102603.53;5054269;28;20486;-80
2021/03/22 06:10:50;;;;;;;17.53;3.93;;;;;;;5.44;83.83;102593.88;5072501;28;20055;-80
2021/03/22 06:13:16;;;;;;;24.07;4.73;;;;;;;5.51;83.32;102600.28;5053917;28;20025;-80
2021/03/22 06:15:55;;;;;;;20.17;4.37;;;;;;;5.38;83.64;102600.19;5054035;28;20024;-80
2021/03/22 06:18:36;;;;;;;22.53;4.43;;;;;;;5.35;84.66;102605.06;5073056;28;20032;-80
2021/03/22 06:21:07;;;;;;;16.80;4.37;;;;;;;5.33;84.37;102604.97;5054030;28;20024;-79
2021/03/22 06:23:41;;;;;;;19.27;4.80;;;;;;;5.54;82.96;102595.44;5049960;28;20120;-80
2021/03/22 06:26:18;;;;;;;18.53;4.30;;;;;;;5.54;80.74;102609.09;5071896;28;20107;-77
2021/03/22 06:28:47;;;;;;;18.40;4.90;;;;;;;5.49;79.24;102602.72;5068067;28;20034;-77
2021/03/22 06:31:17;;;;;;;16.63;4.07;;;;;;;5.39;80.96;102613.06;5072454;28;20039;-76
2021/03/22 06:33:46;;;;;;;19.07;4.77;;;;;;;5.32;81.88;102611.72;5073378;28;20079;-77
2021/03/22 06:36:21;;;;;;;12.87;4.70;;;;;;;5.23;82.09;102617.81;5053266;28;20428;-78
2021/03/22 06:38:49;;;;;;;17.13;4.77;;;;;;;5.12;83.66;102618.66;5070578;28;20055;-80
2021/03/22 06:41:34;;;;;;;14.53;5.30;;;;;;;5.03;85.18;102628.19;5071632;28;20028;-82
2021/03/22 06:44:05;;;;;;;21.30;4.53;;;;;;;5.03;84.99;102633.28;5052938;28;20064;-82
2021/03/22 06:46:30;;;;;;;16.93;4.77;;;;;;;5.06;85.57;102623.31;5053662;28;20371;-82
2021/03/22 06:49:20;;;;;;;14.13;4.35;;;;;;;5.07;85.25;102614.91;5053184;28;20046;-81
2021/03/22 06:52:05;;;;;;;15.27;4.27;;;;;;;5.15;86.18;102621.44;5049963;28;20035;-81
2021/03/22 06:54:41;;;;;;;20.17;5.00;;;;;;;5.28;86.00;102624.13;5069838;28;20055;-82
2021/03/22 06:57:17;;;;;;;17.73;4.50;;;;;;;5.49;85.87;102615.47;5052892;28;20111;-81
2021/03/22 07:00:18;;;;;;;12.68;3.40;;;;;;;5.97;84.24;102609.63;5052978;28;20039;-81
2021/03/22 07:02:50;;;;;;;15.60;3.50;;;;;;;6.05;82.91;102613.56;5046544;28;20635;-80
2021/03/22 07:05:24;;;;;;;8.93;3.90;;;;;;;6.21;83.09;102607.91;5052775;28;20032;-81
2021/03/22 07:08:08;;;;;;;14.13;3.70;;;;;;;6.31;81.75;102607.75;5053177;28;20055;-81
2021/03/22 07:10:39;;;;;;;13.57;4.53;;;;;;;6.42;82.02;102611.91;5050599;28;20110;-80
2021/03/22 07:13:16;;;;;;;11.93;4.13;;;;;;;6.52;80.65;102613.44;5052881;28;20025;-80
2021/03/22 07:15:42;;;;;;;11.77;4.00;;;;;;;6.52;80.48;102608.34;5052974;28;20064;-80
2021/03/22 07:18:26;;;;;;;11.40;4.00;;;;;;;6.54;80.17;102619.53;5053326;28;20058;-80
2021/03/22 07:20:54;;;;;;;15.07;4.97;;;;;;;6.61;80.50;102615.72;5052694;28;20106;-81
2021/03/22 07:23:26;;;;;;;9.77;3.20;;;;;;;6.69;79.72;102610.34;5052600;28;20028;-81
2021/03/22 07:26:25;;;;;;;14.97;4.33;;;;;;;6.63;78.87;102615.06;5053649;28;20036;-81
2021/03/22 07:29:10;;;;;;;11.13;3.47;;;;;;;6.57;80.28;102612.09;5060391;28;20037;-81
2021/03/22 07:31:55;;;;;;;11.73;3.60;;;;;;;6.49;80.02;102611.53;5074283;28;20092;-79
2021/03/22 07:34:33;;;;;;;18.43;4.20;;;;;;;6.42;81.13;102606.81;5074752;28;20017;-80
2021/03/22 07:37:17;;;;;;;16.67;3.93;;;;;;;6.43;81.93;102608.56;5057361;28;20077;-81
2021/03/22 07:39:56;;;;;;;13.60;4.03;;;;;;;6.37;82.63;102607.28;5058544;28;20028;-81
2021/03/22 07:42:43;;;;;;;13.27;3.73;;;;;;;6.45;81.85;102618.88;5074989;28;20058;-80
2021/03/22 07:45:55;;;;;;;15.53;3.83;;;;;;;6.51;83.02;102615.13;5076619;28;20024;-81
2021/03/22 07:48:40;;;;;;;17.47;3.30;;;;;;;6.50;82.86;102613.34;5001467;28;20033;-81
2021/03/22 07:51:28;;;;;;;16.57;3.60;;;;;;;6.51;83.37;102615.13;5065340;28;20063;-81
2021/03/22 07:54:02;;;;;;;;;;;;;;;6.43;83.36;102621.34;5076452;28;20432;-80
2021/03/22 07:56:56;;;;;;;15.20;3.60;;;;;;;6.41;83.61;102629.66;5072952;28;19928;-80
2021/03/22 07:59:30;;;;;;;12.53;3.10;;;;;;;6.27;82.74;102620.19;5075314;28;20024;-81
2021/03/22 08:02:02;;;;;;;11.93;2.67;;;;;;;6.28;82.51;102622.84;5073736;28;20529;-80
2021/03/22 08:04:41;;;;;;;10.60;2.40;;;;;;;6.11;81.12;102625.88;5075645;28;20021;-81
2021/03/22 08:07:17;;;;;;;8.03;2.60;;;;;;;5.99;81.12;102627.56;5072790;28;20493;-81
2021/03/22 08:10:01;;;;;;;10.50;2.53;;;;;;;5.92;83.01;102624.59;5057117;28;20028;-81
2021/03/22 08:12:29;;;;;;;10.80;2.37;;;;;;;5.89;84.21;102628.56;5057487;28;20024;-81
2021/03/22 08:15:18;;;;;;;7.87;2.00;;;;;;;5.87;84.51;102631.00;5059015;28;20170;-81
2021/03/22 08:18:01;;;;;;;10.60;2.20;;;;;;;6.02;84.42;102623.56;5073325;28;20103;-82
2021/03/22 08:20:52;;;;;;;8.37;2.07;;;;;;;6.19;81.99;102635.88;5057159;28;20428;-81
2021/03/22 08:23:27;;;;;;;8.30;1.73;;;;;;;6.27;81.14;102638.94;5057991;28;20028;-82
2021/03/22 08:25:55;;;;;;;9.47;1.90;;;;;;;6.53;81.52;102641.63;5056397;28;20028;-81
2021/03/22 08:28:38;;;;;;;10.43;2.27;;;;;;;6.91;78.45;102632.25;5056405;28;20039;-81
2021/03/22 08:31:12;;;;;;;12.43;2.13;;;;;;;7.32;78.70;102628.19;5073474;28;20059;-82
2021/03/22 08:34:00;;;;;;;5.33;2.27;;;;;;;7.72;76.26;102630.75;5055295;28;20051;-82
2021/03/22 08:36:40;;;;;;;7.47;2.03;;;;;;;7.95;74.70;102632.22;5071056;28;20452;-81
2021/03/22 08:39:15;;;;;;;7.23;2.33;;;;;;;7.89;74.43;102637.84;5055121;28;20037;-82
2021/03/22 08:41:54;;;;;;;8.50;2.10;;;;;;;7.99;75.18;102642.75;5071414;28;20024;-82
2021/03/22 08:44:32;;;;;;;9.33;1.90;;;;;;;7.86;74.96;102635.09;5055991;28;20028;-81
2021/03/22 08:47:05;;;;;;;2.90;1.37;;;;;;;7.54;73.46;102640.72;5055088;28;20046;-81
2021/03/22 08:49:40;;;;;;;5.47;1.10;;;;;;;7.62;74.85;102641.19;5073025;28;20043;-82
2021/03/22 08:52:06;;;;;;;4.07;1.73;;;;;;;8.39;73.73;102629.88;5052573;28;20012;-82
2021/03/22 08:54:33;;;;;;;4.85;0.60;;;;;;;10.15;68.70;102639.22;5054542;28;20679;-82
2021/03/22 08:57:23;;;;;;;5.37;1.00;;;;;;;10.70;65.92;102620.72;5055005;28;20033;-81
2021/03/22 08:59:50;;;;;;;8.02;0.90;;;;;;;11.43;63.71;102629.56;5071720;28;20032;-78
2021/03/22 09:02:27;;;;;;;5.43;1.10;;;;;;;10.20;63.74;102632.69;5072850;28;20379;-78
2021/03/22 09:04:54;;;;;;;5.60;0.70;;;;;;;10.50;66.07;102633.44;5072617;28;20024;-79
2021/03/22 09:07:20;;;;;;;6.00;0.63;;;;;;;10.68;65.39;102630.03;5054226;28;20024;-78
2021/03/22 09:09:46;;;;;;;;;;;;;;;11.01;63.35;102626.63;5054658;28;20401;-79
2021/03/22 09:12:41;;;;;;;4.60;0.83;;;;;;;11.18;64.62;102637.78;5071806;28;19916;-79
2021/03/22 09:15:31;;;;;;;4.65;1.10;;;;;;;11.15;61.21;102633.34;5069402;28;20070;-78
2021/03/22 09:17:59;;;;;;;5.53;1.20;;;;;;;10.71;62.43;102637.91;5053782;28;20066;-78
2021/03/22 09:20:32;;;;;;;5.18;1.05;;;;;;;10.37;63.26;102632.69;5071611;28;20030;-79
2021/03/22 09:23:00;;;;;;;5.20;1.20;;;;;;;10.32;66.13;102646.97;5097272;22;20439;-73
2021/03/22 09:25:49;;;;;;;2.73;1.03;;;;;;;9.80;64.19;102642.44;5118280;27;20492;-77
2021/03/22 09:28:24;;;;;;;7.22;1.25;;;;;;;9.93;67.16;102647.44;5104605;27;20031;-76
2021/03/22 09:31:23;;;;;;;3.33;0.70;;;;;;;9.67;64.41;102639.97;5124859;27;20042;-75
2021/03/22 09:33:53;;;;;;;4.20;0.60;;;;;;;8.98;66.24;102640.25;5100383;28;20032;-78
2021/03/22 09:36:30;;;;;;;5.57;1.30;;;;;;;8.84;67.21;102644.59;5111559;28;20023;-78
2021/03/22 09:38:57;;;;;;;4.32;0.70;;;;;;;8.66;66.94;102643.47;5091591;28;20058;-77
2021/03/22 09:42:01;;;;;;;2.90;0.80;;;;;;;8.58;69.78;102644.69;5093282;28;20023;-78
2021/03/22 09:44:35;;;;;;;4.30;0.90;;;;;;;8.42;68.06;102645.41;5093625;28;20067;-78
2021/03/22 09:47:05;;;;;;;5.47;0.70;;;;;;;8.32;69.10;102648.19;5110088;28;20366;-79
2021/03/22 09:49:52;;;;;;;5.20;0.90;;;;;;;8.28;69.79;102648.78;5109293;28;20027;-79
2021/03/22 09:52:28;;;;;;;4.13;0.88;;;;;;;8.16;70.48;102648.03;5093887;28;20081;-76
2021/03/22 09:54:54;;;;;;;5.28;0.70;;;;;;;8.16;70.31;102650.59;5112597;28;20023;-79
2021/03/22 09:57:19;;;;;;;;;;;;;;;7.97;70.02;102646.88;5094621;28;20031;-78
2021/03/22 10:00:06;;;;;;;5.57;1.03;;;;;;;7.85;71.90;102648.69;5112130;28;19916;-78
2021/03/22 10:02:45;;;;;;;6.30;1.00;;;;;;;7.90;73.21;102657.53;5093445;28;20031;-78
2021/03/22 10:05:15;;;;;;;3.53;0.70;;;;;;;7.96;72.08;102655.34;5112129;28;20032;-78
2021/03/22 10:07:41;;;;;;;6.10;1.00;;;;;;;7.86;72.41;102660.69;5091966;28;20019;-78
2021/03/22 10:10:21;;;;;;;4.67;0.70;;;;;;;7.59;73.51;102664.03;5112079;28;20034;-77
2021/03/22 10:12:53;;;;;;;5.30;0.70;;;;;;;7.49;75.46;102665.97;5111157;28;20434;-78
2021/03/22 10:15:24;;;;;;;4.40;0.90;;;;;;;7.47;76.65;102667.53;5093806;28;20040;-76
2021/03/22 10:18:10;;;;;;;2.27;0.87;;;;;;;7.45;76.01;102665.66;5111762;28;20030;-78
2021/03/22 10:20:42;;;;;;;3.17;1.03;;;;;;;7.48;75.92;102679.56;5093562;28;20032;-80
2021/03/22 10:23:27;;;;;;;5.67;0.70;;;;;;;7.51;74.33;102676.31;5109651;28;20047;-78
2021/03/22 10:26:05;;;;;;;4.17;0.70;;;;;;;7.48;74.19;102671.88;5111250;28;20063;-77
2021/03/22 10:28:30;;;;;;;1.90;0.60;;;;;;;7.57;75.09;102679.25;5111905;28;20027;-78
2021/03/22 10:30:59;;;;;;;6.18;0.65;;;;;;;7.71;74.28;102673.34;5111640;28;20473;-78
2021/03/22 10:33:25;;;;;;;2.97;0.53;;;;;;;7.94;74.09;102671.38;5093588;28;20015;-78
2021/03/22 10:35:56;;;;;;;1.80;0.50;;;;;;;8.03;72.62;102671.97;5093749;28;20054;-78
2021/03/22 10:38:29;;;;;;;4.00;0.80;;;;;;;8.25;72.64;102674.22;5091123;28;20024;-76
2021/03/22 10:40:56;;;;;;;2.57;0.67;;;;;;;8.33;71.54;102673.00;5111731;28;20142;-77
2021/03/22 10:43:40;;;;;;;3.17;0.60;;;;;;;8.40;72.31;102677.75;5111669;28;20031;-78
2021/03/22 10:46:14;;;;;;;8.33;1.17;;;;;;;8.38;72.39;102679.31;5090904;28;20028;-75
2021/03/22 10:48:40;;;;;;;4.13;0.93;;;;;;;8.24;72.40;102675.88;5093177;28;20027;-75
2021/03/22 10:51:19;;;;;;;9.32;1.35;;;;;;;8.23;72.71;102675.78;5110999;28;20028;-75
2021/03/22 10:54:00;;;;;;;4.40;1.10;;;;;;;8.16;71.50;102676.19;5093449;28;20028;-74
2021/03/22 10:56:31;;;;;;;3.17;0.73;;;;;;;8.04;71.71;102666.94;5093435;28;20035;-76
2021/03/22 10:59:01;;;;;;;6.07;0.80;;;;;;;8.12;71.90;102673.41;5112158;28;20043;-75
2021/03/22 11:01:33;;;;;;;1.20;0.50;;;;;;;8.25;71.23;102679.31;5115224;28;20024;-75
2021/03/22 11:04:11;;;;;;;5.93;0.70;;;;;;;8.37;71.04;102677.56;5097750;28;20034;-75
2021/03/22 11:06:39;;;;;;;3.03;0.50;;;;;;;8.37;69.08;102675.00;5095808;28;20383;-76
2021/03/22 11:09:08;;;;;;;1.50;0.60;;;;;;;8.48;69.08;102671.44;5116279;28;20099;-77
2021/03/22 11:11:34;;;;;;;2.53;0.50;;;;;;;8.42;67.45;102676.16;5097381;28;20020;-75
2021/03/22 11:14:05;;;;;;;5.18;0.90;;;;;;;8.22;68.21;102682.59;5115391;28;20026;-75
2021/03/22 11:16:34;;;;;;;3.17;0.60;;;;;;;8.11;68.15;102681.00;5115498;28;20034;-74
2021/03/22 11:19:27;;;;;;;2.67;0.50;;;;;;;7.90;68.56;102683.09;5095220;28;20418;-78
2021/03/22 11:21:55;;;;;;;2.80;0.83;;;;;;;7.82;70.74;102691.09;5094955;28;20061;-77
2021/03/22 11:24:38;;;;;;;1.40;0.70;;;;;;;7.76;69.09;102684.75;5096935;28;20047;-77
2021/03/22 11:27:05;;;;;;;2.10;0.70;;;;;;;7.72;71.08;102693.03;5115046;28;20153;-76
2021/03/22 11:29:30;;;;;;;3.33;0.80;;;;;;;7.67;71.97;102698.63;5114778;28;20027;-75
2021/03/22 11:32:01;;;;;;;3.00;0.77;;;;;;;7.69;72.02;102687.72;5114604;28;20031;-78
2021/03/22 11:34:41;;;;;;;2.60;0.60;;;;;;;7.73;72.94;102691.34;5096409;28;20019;-77
2021/03/22 11:37:27;;;;;;;3.53;0.70;;;;;;;7.80;72.23;102691.88;5114727;28;20096;-76
2021/03/22 11:40:15;;;;;;;4.30;0.80;;;;;;;7.83;72.55;102695.41;5114068;28;20019;-77
2021/03/22 11:43:18;;;;;;;3.53;0.67;;;;;;;7.94;71.07;102702.97;5114306;28;20545;-76
2021/03/22 11:45:46;;;;;;;3.33;0.70;;;;;;;7.90;70.58;102703.56;5112631;28;20024;-76
2021/03/22 11:48:21;;;;;;;3.50;0.50;;;;;;;8.01;71.08;102699.13;5096131;28;20050;-75
2021/03/22 11:51:03;;;;;;;3.47;0.50;;;;;;;7.91;70.44;102695.13;5092023;28;20316;-77
2021/03/22 11:53:29;;;;;;;5.73;0.90;;;;;;;7.93;71.03;102695.22;5092700;28;20025;-77
2021/03/22 11:55:57;;;;;;;1.57;0.70;;;;;;;7.95;70.54;102689.41;5094947;28;20146;-77
2021/03/22 11:58:37;;;;;;;1.07;0.47;;;;;;;7.73;70.31;102696.47;5114528;28;20019;-77